Time;durP1;ratioP1;P1;durP2;ratioP2;P2;SDS_P1;SDS_P2;PMS_P1;PMS_P2;Temp;Humidity;BMP_temperature;BMP_pressure;BME280_temperature;BME280_humidity;BME280_pressure;Samples;Min_cycle;Max_cycle;Signal;HPM_P1;HPM_P2
2023/08/16 09:38:41;;;;;;;;;;;;;;;;;;4953611;29;19927;-92
2023/08/16 09:41:12;;;;;;;;;;;;;;;;;;4940414;29;19925;-93
2023/08/16 09:43:37;;;;;;;;;;;;;;;;;;4940748;29;19977;-91
2023/08/16 09:46:03;;;;;;;;;;;;;;;;;;4957849;29;19988;-92
2023/08/16 09:48:30;;;;;;;;;;;;;;;;;;4939778;29;19916;-91
2023/08/16 09:51:03;;;;;;;;;;;;;;;;;;4957467;29;19914;-94
2023/08/16 09:53:29;;;;;;;;;;;;;;;;;;4940049;29;19914;-93
2023/08/16 09:55:55;;;;;;;;;;;;;;;;;;4939673;28;19922;-95
2023/08/16 09:58:20;;;;;;;;;;;;;;;;;;4940097;29;19915;-90
2023/08/16 10:00:48;;;;;;;;;;;;;;;;;;4957139;28;19918;-93
2023/08/16 10:03:14;;;;;;;;;;;;;;;;;;4939773;29;19953;-93
2023/08/16 10:05:40;;;;;;;;;;;;;;;;;;4939803;29;20324;-94
2023/08/16 10:08:05;;;;;;;;;;;;;;;;;;4939811;29;20008;-94
2023/08/16 10:10:32;;;;;;;;;;;;;;;;;;4940602;29;20281;-92
2023/08/16 10:12:59;;;;;;;;;;;;;;;;;;4958411;29;19914;-92
2023/08/16 10:15:25;;;;;;;;;;;;;;;;;;4956537;29;19914;-93
2023/08/16 10:17:52;;;;;;;;;;;;;;;;;;4956928;29;19921;-93
2023/08/16 10:20:24;;;;;;;;;;;;;;;;;;4940990;29;19915;-91
2023/08/16 10:22:57;;;;;;;;;;;;;;;;;;4960879;29;19937;-95
2023/08/16 10:25:25;;;;;;;;;;;;;;;;;;4939997;28;19910;-92
2023/08/16 10:27:50;;;;;;;;;;;;;;;;;;4958331;29;19965;-93
2023/08/16 10:30:31;;;;;;;;;;;;;;;;;;4957581;28;19910;-96
2023/08/16 10:33:02;;;;;;;;;;;;;;;;;;4942582;29;19914;-94
2023/08/16 10:35:28;;;;;;;;;;;;;;;;;;4956256;28;19942;-92
2023/08/16 10:37:53;;;;;;;;;;;;;;;;;;4956651;29;19914;-95
2023/08/16 10:40:22;;;;;;;;;;;;;;;;;;4941630;28;19918;-93
2023/08/16 10:42:51;;;;;;;;;;;;;;;;;;4940520;29;20369;-94
2023/08/16 10:45:26;;;;;;;;;;;;;;;;;;4939946;28;19914;-93
2023/08/16 10:47:52;;;;;;;;;;;;;;;;;;4957407;29;19914;-94
2023/08/16 10:50:18;;;;;;;;;;;;;;;;;;4946348;29;19914;-95
2023/08/16 10:52:43;;;;;;;;;;;;;;;;;;4943934;29;19914;-93
2023/08/16 10:55:10;;;;;;;;;;;;;;;;;;4957642;28;19918;-86
2023/08/16 10:57:35;;;;;;;;;;;;;;;;;;4956779;29;20361;-87
2023/08/16 11:00:05;;;;;;;;;;;;;;;;;;4956052;28;19914;-91
2023/08/16 11:02:31;;;;;;;;;;;;;;;;;;4938560;29;19949;-89
2023/08/16 11:04:57;;;;;;;;;;;;;;;;;;4955654;29;19989;-88
2023/08/16 11:07:23;;;;;;;;;;;;;;;;;;4955948;29;20262;-88
2023/08/16 11:09:48;;;;;;;;;;;;;;;;;;4955762;28;19915;-89
2023/08/16 11:12:17;;;;;;;;;;;;;;;;;;4955935;29;19915;-88
2023/08/16 11:14:45;;;;;;;;;;;;;;;;;;4958973;29;19921;-92
2023/08/16 11:17:13;;;;;;;;;;;;;;;;;;4959300;29;20337;-89
2023/08/16 11:19:40;;;;;;;;;;;;;;;;;;4959528;29;19928;-89
2023/08/16 11:22:06;;;;;;;;;;;;;;;;;;4942520;29;19941;-88
2023/08/16 11:24:33;;;;;;;;;;;;;;;;;;4959862;29;20380;-89
2023/08/16 11:26:58;;;;;;;;;;;;;;;;;;4942099;29;19964;-88
2023/08/16 11:29:23;;;;;;;;;;;;;;;;;;4959373;29;19950;-88
2023/08/16 11:31:54;;;;;;;;;;;;;;;;;;4960572;29;20033;-95
2023/08/16 11:34:19;;;;;;;;;;;;;;;;;;4942486;29;19914;-93
2023/08/16 11:36:45;;;;;;;;;;;;;;;;;;4942898;29;20047;-95
2023/08/16 11:39:10;;;;;;;;;;;;;;;;;;4942450;28;19961;-95
2023/08/16 11:41:36;;;;;;;;;;;;;;;;;;4944182;29;19929;-96
2023/08/16 11:44:01;;;;;;;;;;;;;;;;;;4937923;28;19921;-96
2023/08/16 11:46:27;;;;;;;;;;;;;;;;;;4958732;28;19980;-94
2023/08/16 11:48:53;;;;;;;;;;;;;;;;;;4941888;29;19921;-94
2023/08/16 11:51:18;;;;;;;;;;;;;;;;;;4953859;29;19993;-96
2023/08/16 11:53:44;;;;;;;;;;;;;;;;;;4922672;29;19914;-94
2023/08/16 11:56:09;;;;;;;;;;;;;;;;;;4923058;29;19946;-94
2023/08/16 11:58:44;;;;;;;;;;;;;;;;;;4922936;29;19966;-96
2023/08/16 12:01:12;;;;;;;;;;;;;;;;;;4939322;29;20504;-96
2023/08/16 12:03:37;;;;;;;;;;;;;;;;;;4942474;28;19914;-95
2023/08/16 12:06:08;;;;;;;;;;;;;;;;;;4942266;29;19969;-96
2023/08/16 12:08:33;;;;;;;;;;;;;;;;;;4944674;28;19915;-96
2023/08/16 12:10:58;;;;;;;;;;;;;;;;;;4959530;29;19965;-96
2023/08/16 12:13:24;;;;;;;;;;;;;;;;;;4942187;29;20278;-96
2023/08/16 12:15:50;;;;;;;;;;;;;;;;;;4942086;29;19945;-95
2023/08/16 12:18:16;;;;;;;;;;;;;;;;;;4941776;28;19915;-96
2023/08/16 12:20:42;;;;;;;;;;;;;;;;;;4941531;29;19914;-96
2023/08/16 12:23:08;;;;;;;;;;;;;;;;;;4941771;29;19965;-96
2023/08/16 12:25:34;;;;;;;;;;;;;;;;;;4940532;29;19914;-96
2023/08/16 12:27:59;;;;;;;;;;;;;;;;;;4941789;29;19914;-96
2023/08/16 12:30:25;;;;;;;;;;;;;;;;;;4941884;29;20373;-95
2023/08/16 12:32:51;;;;;;;;;;;;;;;;;;4941592;29;20381;-96
2023/08/16 12:35:16;;;;;;;;;;;;;;;;;;4941613;29;19914;-96
2023/08/16 12:37:42;;;;;;;;;;;;;;;;;;4941741;29;19914;-96
2023/08/16 12:40:09;;;;;;;;;;;;;;;;;;4941148;29;19929;-96
2023/08/16 12:42:34;;;;;;;;;;;;;;;;;;4941394;29;19921;-96
2023/08/16 12:45:00;;;;;;;;;;;;;;;;;;4940675;29;19918;-96
2023/08/16 12:47:25;;;;;;;;;;;;;;;;;;4922438;29;19922;-96
2023/08/16 12:49:50;;;;;;;;;;;;;;;;;;4922306;29;19961;-96
2023/08/16 12:52:16;;;;;;;;;;;;;;;;;;4939138;29;19915;-96
2023/08/16 12:54:41;;;;;;;;;;;;;;;;;;4921926;29;20013;-96
2023/08/16 12:57:06;;;;;;;;;;;;;;;;;;4922265;29;19922;-93
2023/08/16 12:59:32;;;;;;;;;;;;;;;;;;4922077;29;19915;-94
2023/08/16 13:01:57;;;;;;;;;;;;;;;;;;4938698;29;19922;-93
2023/08/16 13:04:22;;;;;;;;;;;;;;;;;;4921709;29;19918;-93
2023/08/16 13:06:48;;;;;;;;;;;;;;;;;;4921843;29;19915;-94
2023/08/16 13:09:16;;;;;;;;;;;;;;;;;;4921866;29;19915;-93
2023/08/16 13:11:42;;;;;;;;;;;;;;;;;;4921773;29;19914;-94
2023/08/16 13:14:09;;;;;;;;;;;;;;;;;;4921677;29;19915;-93
2023/08/16 13:16:35;;;;;;;;;;;;;;;;;;4921486;29;19915;-93
2023/08/16 13:19:01;;;;;;;;;;;;;;;;;;4921629;29;20371;-93
2023/08/16 13:21:26;;;;;;;;;;;;;;;;;;4921556;29;19938;-94
2023/08/16 13:23:52;;;;;;;;;;;;;;;;;;4921503;29;19910;-94
2023/08/16 13:26:17;;;;;;;;;;;;;;;;;;4921678;29;19922;-95
2023/08/16 13:28:43;;;;;;;;;;;;;;;;;;4921827;29;19915;-95
2023/08/16 13:31:11;;;;;;;;;;;;;;;;;;4921798;29;19942;-96
2023/08/16 13:33:36;;;;;;;;;;;;;;;;;;4923469;29;19918;-96
2023/08/16 13:36:02;;;;;;;;;;;;;;;;;;4928816;29;19922;-94
2023/08/16 13:38:27;;;;;;;;;;;;;;;;;;4932658;29;19915;-94
2023/08/16 13:43:28;;;;;;;;;;;;;;;;;;5075118;23;19928;-96
2023/08/16 13:45:53;;;;;;;;;;;;;;;;;;4966982;28;19918;-89
2023/08/16 13:48:42;;;;;;;;;;;;;;;;;;4982004;28;19918;-96
2023/08/16 13:51:27;;;;;;;;;;;;;;;;;;4996243;28;19993;-96
2023/08/16 13:53:52;;;;;;;;;;;;;;;;;;4978792;28;19921;-96
2023/08/16 13:56:18;;;;;;;;;;;;;;;;;;4977406;28;19914;-96
2023/08/16 13:58:47;;;;;;;;;;;;;;;;;;4996358;28;19918;-96
2023/08/16 14:01:16;;;;;;;;;;;;;;;;;;4964445;28;19922;-96
2023/08/16 14:03:45;;;;;;;;;;;;;;;;;;4997781;28;19985;-96
2023/08/16 14:06:13;;;;;;;;;;;;;;;;;;4980823;28;19914;-96
2023/08/16 14:08:45;;;;;;;;;;;;;;;;;;4998730;28;19916;-96
2023/08/16 14:11:17;;;;;;;;;;;;;;;;;;4982571;23;19907;-96
2023/08/16 14:13:50;;;;;;;;;;;;;;;;;;4977575;28;19965;-96
2023/08/16 14:16:15;;;;;;;;;;;;;;;;;;4974118;29;19914;-96
2023/08/16 14:18:44;;;;;;;;;;;;;;;;;;4955930;29;19926;-96
2023/08/16 14:21:09;;;;;;;;;;;;;;;;;;4968545;29;19923;-96
2023/08/16 14:23:35;;;;;;;;;;;;;;;;;;4961785;29;19915;-96
2023/08/16 14:26:00;;;;;;;;;;;;;;;;;;4968861;28;19914;-96
2023/08/16 14:28:26;;;;;;;;;;;;;;;;;;4967400;29;20385;-87
2023/08/16 14:30:51;;;;;;;;;;;;;;;;;;4968849;28;19922;-96
2023/08/16 14:33:18;;;;;;;;;;;;;;;;;;4971551;28;19914;-94
2023/08/16 14:35:45;;;;;;;;;;;;;;;;;;4967196;28;20139;-96
2023/08/16 14:53:51;;;;;;;;;;;;;;;;;;5805767;23;19926;-96
2023/08/16 14:56:24;;;;;;;;;;;;;;;;;;5016759;28;19902;-96
2023/08/16 14:59:05;;;;;;;;;;;;;;;;;;5016057;28;19918;-96
2023/08/16 15:20:17;;;;;;;;;;;;;;;;;;5598176;23;19918;-96
2023/08/16 15:23:04;;;;;;;;;;;;;;;;;;5014225;28;19918;-96
2023/08/16 15:25:29;;;;;;;;;;;;;;;;;;5003189;28;20287;-95
2023/08/16 15:27:55;;;;;;;;;;;;;;;;;;4977749;28;19914;-96
2023/08/16 15:30:20;;;;;;;;;;;;;;;;;;4978043;28;19972;-96
2023/08/16 15:32:45;;;;;;;;;;;;;;;;;;4978944;28;19914;-95
2023/08/16 15:35:11;;;;;;;;;;;;;;;;;;4977931;28;19913;-96
2023/08/16 15:37:36;;;;;;;;;;;;;;;;;;4995145;28;20009;-94
2023/08/16 15:40:01;;;;;;;;;;;;;;;;;;4977468;28;20280;-95
2023/08/16 15:42:27;;;;;;;;;;;;;;;;;;4977527;28;19914;-95
2023/08/16 15:44:52;;;;;;;;;;;;;;;;;;4977523;28;19979;-95
2023/08/16 15:47:17;;;;;;;;;;;;;;;;;;4977705;28;19945;-94
2023/08/16 15:49:43;;;;;;;;;;;;;;;;;;4977531;28;20495;-95
2023/08/16 15:52:08;;;;;;;;;;;;;;;;;;4977676;28;19913;-95
2023/08/16 15:54:33;;;;;;;;;;;;;;;;;;4977198;28;19914;-95
2023/08/16 15:56:59;;;;;;;;;;;;;;;;;;4977560;28;19920;-95
2023/08/16 15:59:24;;;;;;;;;;;;;;;;;;4978489;28;19999;-96
2023/08/16 16:01:50;;;;;;;;;;;;;;;;;;4981005;28;19968;-95
2023/08/16 16:04:15;;;;;;;;;;;;;;;;;;4980850;28;20283;-95
2023/08/16 16:06:40;;;;;;;;;;;;;;;;;;4980694;28;19920;-95
2023/08/16 16:09:06;;;;;;;;;;;;;;;;;;4980756;28;20456;-96
2023/08/16 16:11:32;;;;;;;;;;;;;;;;;;4980829;28;19917;-94
2023/08/16 16:14:02;;;;;;;;;;;;;;;;;;4980353;28;19913;-95
2023/08/16 16:16:28;;;;;;;;;;;;;;;;;;4980550;28;19914;-95
2023/08/16 16:18:53;;;;;;;;;;;;;;;;;;4980444;28;19964;-95
2023/08/16 16:21:20;;;;;;;;;;;;;;;;;;4980336;28;20357;-96
2023/08/16 16:23:45;;;;;;;;;;;;;;;;;;4980513;28;19918;-95
2023/08/16 16:26:10;;;;;;;;;;;;;;;;;;4980126;28;19921;-96
2023/08/16 16:28:36;;;;;;;;;;;;;;;;;;4980193;28;20008;-96
2023/08/16 16:31:01;;;;;;;;;;;;;;;;;;4980421;28;19914;-94
2023/08/16 16:33:26;;;;;;;;;;;;;;;;;;4979964;28;19914;-95
2023/08/16 16:35:52;;;;;;;;;;;;;;;;;;4980187;28;19913;-96
2023/08/16 16:38:17;;;;;;;;;;;;;;;;;;4984134;28;19980;-92
2023/08/16 16:40:42;;;;;;;;;;;;;;;;;;4979809;28;19957;-91
2023/08/16 16:43:08;;;;;;;;;;;;;;;;;;4980884;28;19914;-93
2023/08/16 16:45:33;;;;;;;;;;;;;;;;;;4979707;28;20257;-91
2023/08/16 16:47:58;;;;;;;;;;;;;;;;;;4980570;28;19914;-94
2023/08/16 16:50:24;;;;;;;;;;;;;;;;;;4979591;28;19914;-95
2023/08/16 16:52:49;;;;;;;;;;;;;;;;;;4979321;28;19913;-94
2023/08/16 16:55:14;;;;;;;;;;;;;;;;;;4997287;28;20403;-94
2023/08/16 16:57:40;;;;;;;;;;;;;;;;;;4979800;28;19913;-94
2023/08/16 17:00:07;;;;;;;;;;;;;;;;;;4979503;28;19956;-94
2023/08/16 17:02:33;;;;;;;;;;;;;;;;;;4996662;28;20001;-94
2023/08/16 17:04:58;;;;;;;;;;;;;;;;;;4979447;28;20363;-93
2023/08/16 17:07:24;;;;;;;;;;;;;;;;;;4979517;28;20008;-92
2023/08/16 17:09:49;;;;;;;;;;;;;;;;;;4998092;28;19967;-96
2023/08/16 17:12:14;;;;;;;;;;;;;;;;;;4989053;28;20272;-91
2023/08/16 17:14:40;;;;;;;;;;;;;;;;;;4996756;28;19925;-93
2023/08/16 17:17:05;;;;;;;;;;;;;;;;;;4996354;28;19914;-93
2023/08/16 17:19:31;;;;;;;;;;;;;;;;;;4979643;28;19909;-89
2023/08/16 17:21:56;;;;;;;;;;;;;;;;;;4996383;28;19921;-86
2023/08/16 17:24:21;;;;;;;;;;;;;;;;;;4996275;28;20008;-87
2023/08/16 17:26:47;;;;;;;;;;;;;;;;;;4995812;28;19914;-86
2023/08/16 17:29:12;;;;;;;;;;;;;;;;;;4995895;28;20008;-87
2023/08/16 17:31:37;;;;;;;;;;;;;;;;;;4995955;28;20323;-87
2023/08/16 17:34:03;;;;;;;;;;;;;;;;;;4995745;28;19921;-87
2023/08/16 17:36:28;;;;;;;;;;;;;;;;;;4995764;28;19922;-87
2023/08/16 17:38:53;;;;;;;;;;;;;;;;;;4978145;28;20383;-88
2023/08/16 17:41:20;;;;;;;;;;;;;;;;;;4995843;28;19913;-86
2023/08/16 17:43:45;;;;;;;;;;;;;;;;;;4995715;28;20352;-88
2023/08/16 17:46:11;;;;;;;;;;;;;;;;;;4995514;28;19921;-89
2023/08/16 17:48:36;;;;;;;;;;;;;;;;;;4995657;28;19913;-87
2023/08/16 17:51:02;;;;;;;;;;;;;;;;;;4994958;28;19916;-85
2023/08/16 17:53:27;;;;;;;;;;;;;;;;;;4995614;28;19914;-85
2023/08/16 17:55:52;;;;;;;;;;;;;;;;;;4995339;28;19921;-86
2023/08/16 17:58:20;;;;;;;;;;;;;;;;;;4995943;28;20003;-89
2023/08/16 18:00:46;;;;;;;;;;;;;;;;;;4995526;28;19960;-93
2023/08/16 18:03:11;;;;;;;;;;;;;;;;;;4995471;28;20277;-86
2023/08/16 18:05:37;;;;;;;;;;;;;;;;;;4995352;28;19921;-86
2023/08/16 18:08:03;;;;;;;;;;;;;;;;;;4995176;28;19917;-86
2023/08/16 18:10:28;;;;;;;;;;;;;;;;;;4995275;28;20249;-86
2023/08/16 18:12:53;;;;;;;;;;;;;;;;;;4995445;28;19914;-87
2023/08/16 18:15:19;;;;;;;;;;;;;;;;;;4995287;28;19914;-87
2023/08/16 18:17:44;;;;;;;;;;;;;;;;;;4995216;28;19968;-85
2023/08/16 18:20:11;;;;;;;;;;;;;;;;;;4939835;28;19922;-92
2023/08/16 18:22:37;;;;;;;;;;;;;;;;;;4995137;28;20271;-92
2023/08/16 18:25:03;;;;;;;;;;;;;;;;;;4977841;28;19973;-91
2023/08/16 18:27:28;;;;;;;;;;;;;;;;;;4995147;28;19914;-91
2023/08/16 18:29:54;;;;;;;;;;;;;;;;;;4995150;28;19921;-91
2023/08/16 18:32:19;;;;;;;;;;;;;;;;;;4977448;28;19969;-90
2023/08/16 18:34:44;;;;;;;;;;;;;;;;;;4995010;28;19914;-90
2023/08/16 18:37:10;;;;;;;;;;;;;;;;;;4994991;28;20008;-90
2023/08/16 18:39:35;;;;;;;;;;;;;;;;;;4977715;28;19914;-89
2023/08/16 18:42:02;;;;;;;;;;;;;;;;;;4995065;28;19921;-92
2023/08/16 18:44:27;;;;;;;;;;;;;;;;;;4977539;28;19914;-90
2023/08/16 18:46:52;;;;;;;;;;;;;;;;;;4994992;28;19964;-90
2023/08/16 18:49:18;;;;;;;;;;;;;;;;;;4994968;28;20373;-91
2023/08/16 18:51:43;;;;;;;;;;;;;;;;;;4994802;28;20288;-89
2023/08/16 18:54:08;;;;;;;;;;;;;;;;;;4995127;28;19914;-89
2023/08/16 18:56:34;;;;;;;;;;;;;;;;;;4995193;28;19921;-90
2023/08/16 18:58:59;;;;;;;;;;;;;;;;;;4995945;28;20357;-90
2023/08/16 19:01:25;;;;;;;;;;;;;;;;;;4978071;28;20257;-89
2023/08/16 19:03:50;;;;;;;;;;;;;;;;;;4977591;28;19914;-88
2023/08/16 19:06:15;;;;;;;;;;;;;;;;;;4994656;28;19914;-90
2023/08/16 19:08:41;;;;;;;;;;;;;;;;;;4994481;28;20257;-90
2023/08/16 19:11:06;;;;;;;;;;;;;;;;;;4994856;28;19913;-90
2023/08/16 19:13:31;;;;;;;;;;;;;;;;;;4977282;28;19917;-85
2023/08/16 19:15:57;;;;;;;;;;;;;;;;;;4994355;28;19914;-89
2023/08/16 19:18:22;;;;;;;;;;;;;;;;;;4994434;28;19921;-88
2023/08/16 19:20:48;;;;;;;;;;;;;;;;;;4976798;28;20380;-88
2023/08/16 20:59:07;;;;;;;;;;;;;;;;;;4938280;29;19974;-91
2023/08/16 21:01:33;;;;;;;;;;;;;;;;;;4957755;29;19918;-88
2023/08/16 21:03:58;;;;;;;;;;;;;;;;;;4957834;29;19926;-88
2023/08/16 21:06:24;;;;;;;;;;;;;;;;;;4940173;29;19969;-88
2023/08/16 21:08:50;;;;;;;;;;;;;;;;;;4957378;29;19922;-88
2023/08/16 21:11:15;;;;;;;;;;;;;;;;;;4957665;29;19954;-88
2023/08/16 21:13:41;;;;;;;;;;;;;;;;;;4957783;29;19964;-89
2023/08/16 21:16:06;;;;;;;;;;;;;;;;;;4940152;28;19921;-88
2023/08/16 21:18:31;;;;;;;;;;;;;;;;;;4957416;29;19997;-88
2023/08/16 21:20:57;;;;;;;;;;;;;;;;;;4940223;29;19914;-89
2023/08/16 21:23:22;;;;;;;;;;;;;;;;;;4957478;29;19979;-89
2023/08/16 21:25:54;;;;;;;;;;;;;;;;;;4957160;28;19917;-89
2023/08/16 21:28:20;;;;;;;;;;;;;;;;;;4940315;29;20428;-88
2023/08/16 21:30:45;;;;;;;;;;;;;;;;;;4957274;29;19946;-88
2023/08/16 21:33:10;;;;;;;;;;;;;;;;;;4957192;29;19937;-89
2023/08/16 21:35:36;;;;;;;;;;;;;;;;;;4957186;29;19914;-88
2023/08/16 21:38:01;;;;;;;;;;;;;;;;;;4957206;29;19932;-88
2023/08/16 21:40:28;;;;;;;;;;;;;;;;;;4957120;29;19914;-90
2023/08/16 21:42:53;;;;;;;;;;;;;;;;;;4940116;29;19910;-88
2023/08/16 21:45:18;;;;;;;;;;;;;;;;;;4957183;29;19925;-89
2023/08/16 21:47:44;;;;;;;;;;;;;;;;;;4940145;29;19915;-90
2023/08/16 21:50:09;;;;;;;;;;;;;;;;;;4940132;29;19969;-91
2023/08/16 21:52:34;;;;;;;;;;;;;;;;;;4957167;29;19942;-91
2023/08/16 21:55:00;;;;;;;;;;;;;;;;;;4956968;29;19914;-90
2023/08/16 21:57:25;;;;;;;;;;;;;;;;;;4956727;28;20419;-89
2023/08/16 21:59:50;;;;;;;;;;;;;;;;;;4957001;29;20277;-90
2023/08/16 22:02:16;;;;;;;;;;;;;;;;;;4956666;29;19914;-89
2023/08/16 22:04:41;;;;;;;;;;;;;;;;;;4939437;29;20131;-89
2023/08/16 22:07:06;;;;;;;;;;;;;;;;;;4939452;29;20056;-88
2023/08/16 22:09:32;;;;;;;;;;;;;;;;;;4956841;29;19915;-86
2023/08/16 22:11:58;;;;;;;;;;;;;;;;;;4956624;29;19921;-86
